St. George, AK

3:53 AM AKDT on June 23, 2017 (GMT -0800)
Saint George

Weather History for PAPB - December, 2012

Change the Weather History Date:

Wednesday, December 12, 2012

  Actual Average Record
Temperature  
Mean Temperature 36 °F -  
Max Temperature 39 °F 29 °F 39 °F (2000)
Min Temperature 33 °F 21 °F 10 °F (1998)
Degree Days  
Heating Degree Days 29    
Moisture  
Dew Point 34 °F    
Average Humidity 87    
Maximum Humidity 100    
Minimum Humidity 76    
Precipitation  
Precipitation 0.07 in - - ()
Sea Level Pressure  
Sea Level Pressure 29.39 in    
Wind  
Wind Speed 30 mph (SW)    
Max Wind Speed 41 mph    
Max Gust Speed 51 mph    
Visibility 6 miles    
Events Rain , Snow    
Averages and records for this station are not official NWS values.
T = Trace of Precipitation, MM = Missing Value Source: NWS Daily Summary

Daily Weather History Graph

Daily Weather History Graph

Search for Another Location

Airport or City:

Trip Planner

Search our weather history database for the weather conditions in past years. The results will help you decide how hot, cold, wet, or windy it might be!

Date:

Astronomy

Dec. 12, 2012 Rise Set
Actual Time 10:45 AM AKST 5:39 PM AKST
Civil Twilight 9:57 AM AKST 6:27 PM AKST
Nautical Twilight 9:07 AM AKST 7:17 PM AKST
Astronomical Twilight 8:21 AM AKST 8:04 PM AKST
Moon 10:00 AM AKST (12/12) 5:34 PM AKST (12/12)
Length of Visible Light 8h 30m
Length of Day
6h 53m
Waning Crescent, 0% of the Moon is Illuminated
Dec 12
Waning Crescent
Dec 12
New
Dec 19
First Quarter
Dec 28
Full
Jan 4
Last Quarter

Hourly Weather History & Observations

Time (AKST) Temp. Windchill Dew Point Humidity Pressure Visibility Wind Dir Wind Speed Gust Speed Precip Events Conditions
12:10 AM 39.2 °F 27.4 °F 37.4 °F 93% 29.25 in 6.0 mi SSW 29.9 mph 39.1 mph N/A   Overcast
12:19 AM 39.2 °F 27.4 °F 37.4 °F 93% 29.25 in 7.0 mi SSW 29.9 mph 40.3 mph N/A   Overcast
12:53 AM 39.9 °F 28.8 °F 37.0 °F 89% 29.23 in 7.0 mi SW 27.6 mph 36.8 mph N/A   Overcast
1:14 AM 37.4 °F 24.4 °F 35.6 °F 93% 29.26 in 9.0 mi SW 33.4 mph 50.6 mph 0.00 in Snow Light Snow
1:38 AM 39.2 °F 27.4 °F 35.6 °F 87% 29.28 in 8.0 mi SW 29.9 mph 42.6 mph 0.00 in   Overcast
1:53 AM 39.0 °F 27.0 °F 35.1 °F 86% 29.25 in 8.0 mi SW 31.1 mph 39.1 mph 0.00 in   Overcast
2:22 AM 37.4 °F 25.4 °F 33.8 °F 87% 29.30 in 8.0 mi SW 27.6 mph 38.0 mph 0.00 in Snow Light Snow
2:51 AM 39.2 °F 27.0 °F 33.8 °F 81% 29.30 in 8.0 mi SW 32.2 mph 42.6 mph 0.00 in   Unknown
3:53 AM 37.9 °F 26.1 °F 34.0 °F 86% 29.28 in 7.0 mi SW 27.6 mph 38.0 mph 0.00 in Snow Light Snow
4:23 AM 37.4 °F 24.8 °F 33.8 °F 87% 29.32 in 7.0 mi SW 31.1 mph 41.4 mph 0.00 in Snow Light Snow
4:34 AM 37.4 °F 24.8 °F 33.8 °F 87% 29.33 in 7.0 mi SW 31.1 mph 41.4 mph 0.00 in Snow Light Snow
4:41 AM 37.4 °F 25.0 °F 33.8 °F 87% 29.34 in 7.0 mi SW 29.9 mph 40.3 mph 0.00 in Snow Light Snow
4:53 AM 37.9 °F 25.1 °F 34.0 °F 86% 29.31 in 7.0 mi SW 33.4 mph 41.4 mph 0.00 in Snow Light Snow
5:53 AM 37.9 °F 25.1 °F 33.1 °F 83% 29.32 in 8.0 mi WSW 33.4 mph 43.7 mph 0.00 in Snow Light Snow
6:06 AM 37.4 °F 25.0 °F 33.8 °F 87% 29.36 in 7.0 mi WSW 29.9 mph 39.1 mph 0.00 in Snow Light Snow
6:14 AM 37.4 °F 25.2 °F 33.8 °F 87% 29.36 in 7.0 mi SW 28.8 mph 38.0 mph 0.00 in Snow Light Snow
6:28 AM 37.4 °F 25.0 °F 33.8 °F 87% 29.36 in 7.0 mi SW 29.9 mph 41.4 mph 0.00 in Snow Light Snow
6:53 AM 37.9 °F 25.3 °F 32.0 °F 79% 29.34 in 7.0 mi WSW 32.2 mph 43.7 mph 0.01 in Snow Light Snow
7:07 AM 37.4 °F 24.6 °F 32.0 °F 81% 29.37 in 7.0 mi WSW 32.2 mph 39.1 mph 0.00 in Snow Light Snow
7:53 AM 37.9 °F 24.9 °F 33.1 °F 83% 29.34 in 7.0 mi SW 34.5 mph 42.6 mph 0.00 in Snow Light Snow
8:11 AM 37.4 °F 24.4 °F 33.8 °F 87% 29.39 in 8.0 mi SW 33.4 mph 42.6 mph 0.00 in Snow Light Snow
8:53 AM 37.9 °F 25.3 °F 34.0 °F 86% 29.38 in 7.0 mi WSW 32.2 mph 47.2 mph 0.00 in Snow Light Snow
9:07 AM 37.4 °F 25.0 °F 33.8 °F 87% 29.41 in 7.0 mi SW 29.9 mph 44.9 mph 0.00 in Snow Light Snow
9:44 AM 37.4 °F 24.4 °F 33.8 °F 87% 29.40 in 5.0 mi SW 33.4 mph 41.4 mph 0.00 in Snow Light Snow
9:53 AM 36.0 °F 22.8 °F 33.1 °F 89% 29.38 in 4.0 mi SW 31.1 mph 44.9 mph 0.00 in Snow Light Snow
10:05 AM 35.6 °F 21.9 °F 33.8 °F 93% 29.41 in 8.0 mi SW 33.4 mph 42.6 mph 0.00 in   Mostly Cloudy
10:53 AM 37.0 °F 24.5 °F 33.1 °F 86% 29.40 in 7.0 mi SW 29.9 mph 36.8 mph 0.01 in   Mostly Cloudy
11:48 AM 35.6 °F 21.9 °F 33.8 °F 93% 29.44 in 2.0 mi WSW 33.4 mph 50.6 mph 0.01 in Snow Light Snow
11:53 AM 36.0 °F 23.5 °F 33.1 °F 89% 29.41 in 1.2 mi West 27.6 mph 50.6 mph 0.02 in Snow Light Snow
12:01 PM 37.4 °F 24.8 °F 35.6 °F 93% 29.44 in 3.0 mi WSW 31.1 mph 42.6 mph 0.00 in Snow Light Snow
12:21 PM 35.6 °F 20.6 °F 33.8 °F 93% 29.44 in 1.2 mi WSW 41.4 mph 50.6 mph 0.02 in Snow Light Snow
12:23 PM 33.8 °F 18.6 °F 33.8 °F 100% 29.45 in 0.8 mi WSW 38.0 mph 50.6 mph 0.02 in Snow Light Snow
12:26 PM 33.8 °F 18.8 °F 32.0 °F 93% 29.44 in 0.8 mi SW 36.8 mph 50.6 mph 0.03 in Snow Light Snow
12:32 PM 35.6 °F 22.3 °F 33.8 °F 93% 29.45 in 1.5 mi WSW 31.1 mph 44.9 mph 0.03 in Snow Light Snow
12:34 PM 35.6 °F 22.3 °F 33.8 °F 93% 29.45 in 4.0 mi WSW 31.1 mph 42.6 mph 0.03 in Snow Light Snow
12:53 PM 37.9 °F 25.3 °F 34.0 °F 86% 29.42 in 6.0 mi SW 32.2 mph 41.4 mph 0.03 in   Mostly Cloudy
1:53 PM 39.0 °F 25.4 °F 33.1 °F 79% 29.41 in 6.0 mi WSW 41.4 mph 50.6 mph 0.00 in   Haze
2:30 PM 37.4 °F 25.2 °F 33.8 °F 87% 29.46 in 6.0 mi WSW 28.8 mph 39.1 mph N/A   Haze
2:53 PM 39.0 °F 26.6 °F 32.0 °F 76% 29.42 in 7.0 mi WSW 33.4 mph 46.0 mph N/A   Overcast
3:33 PM 39.2 °F 27.4 °F 33.8 °F 81% 29.46 in 6.0 mi WSW 29.9 mph 41.4 mph N/A   Haze
3:53 PM 39.0 °F 27.4 °F 33.1 °F 79% 29.43 in 5.0 mi WSW 28.8 mph 36.8 mph N/A   Haze
4:20 PM 39.2 °F 27.8 °F 33.8 °F 81% 29.46 in 6.0 mi WSW 27.6 mph 40.3 mph N/A   Haze
4:46 PM 37.4 °F 26.6 °F 33.8 °F 87% 29.46 in 5.0 mi SW 21.9 mph 32.2 mph N/A   Overcast
4:53 PM 37.9 °F 27.9 °F 34.0 °F 86% 29.43 in 4.0 mi WSW 19.6 mph 29.9 mph 0.00 in Rain Light Rain
5:00 PM 37.4 °F 25.6 °F 35.6 °F 93% 29.46 in 4.0 mi WSW 26.5 mph 31.1 mph 0.00 in   Overcast
5:53 PM 37.9 °F 26.3 °F 34.0 °F 86% 29.43 in 5.0 mi SW 26.5 mph 32.2 mph 0.00 in   Overcast
6:38 PM 37.4 °F 26.1 °F 33.8 °F 87% 29.47 in 6.0 mi SW 24.2 mph 32.2 mph 0.00 in   Overcast
6:53 PM 37.9 °F 26.6 °F 35.1 °F 89% 29.43 in 7.0 mi SW 25.3 mph 32.2 mph 0.00 in   Overcast
7:13 PM 37.4 °F 26.1 °F 35.6 °F 93% 29.46 in 6.0 mi SW 24.2 mph 29.9 mph N/A   Overcast
7:53 PM 37.9 °F 27.6 °F 34.0 °F 86% 29.43 in 6.0 mi SW 20.7 mph - N/A   Mostly Cloudy
8:53 PM 37.9 °F 26.6 °F 34.0 °F 86% 29.43 in 6.0 mi WSW 25.3 mph 32.2 mph N/A   Mostly Cloudy
9:02 PM 37.4 °F 25.6 °F 33.8 °F 87% 29.47 in 7.0 mi SW 26.5 mph 36.8 mph 0.00 in Snow Light Snow
9:11 PM 37.4 °F 25.6 °F 33.8 °F 87% 29.47 in 6.0 mi WSW 26.5 mph 35.7 mph 0.00 in   Haze
9:50 PM 33.8 °F 20.5 °F 32.0 °F 93% 29.47 in 4.0 mi WSW 27.6 mph 42.6 mph 0.00 in Snow Light Snow
9:51 PM 34.0 °F 20.8 °F 32.0 °F 92% 29.44 in 4.0 mi WSW 27.6 mph 42.6 mph 0.00 in Snow Light Snow
10:16 PM 35.6 °F 24.8 °F 30.2 °F 81% 29.48 in 6.0 mi WSW 19.6 mph - 0.00 in   Haze